Time;durP1;ratioP1;P1;durP2;ratioP2;P2;SDS_P1;SDS_P2;PMS_P1;PMS_P2;Temp;Humidity;BMP_temperature;BMP_pressure;BME280_temperature;BME280_humidity;BME280_pressure;Samples;Min_cycle;Max_cycle;Signal;HPM_P1;HPM_P2
2023/04/30 00:01:27;;;;;;;;;;;6.10;99.90;;;;;;5057099;28;19925;-70
2023/04/30 00:03:52;;;;;;;;;;;6.10;99.90;;;;;;5072866;28;20362;-70
2023/04/30 00:06:18;;;;;;;;;;;6.10;99.90;;;;;;5068847;28;20034;-69
2023/04/30 00:08:43;;;;;;;;;;;6.00;99.90;;;;;;5052872;28;20369;-69
2023/04/30 00:11:09;;;;;;;;;;;6.00;99.90;;;;;;5052879;28;19932;-69
2023/04/30 00:13:35;;;;;;;;;;;6.00;99.90;;;;;;5035574;28;20285;-69
2023/04/30 00:16:00;;;;;;;;;;;6.00;99.90;;;;;;5052791;28;19976;-69
2023/04/30 00:18:26;;;;;;;;;;;5.90;99.90;;;;;;5066891;28;19993;-69
2023/04/30 00:20:52;;;;;;;;;;;5.90;99.90;;;;;;5072059;28;19920;-69
2023/04/30 00:23:17;;;;;;;;;;;5.90;99.90;;;;;;5044649;28;19948;-69
2023/04/30 00:25:43;;;;;;;;;;;5.90;99.90;;;;;;5047514;28;20422;-69
2023/04/30 00:28:09;;;;;;;;;;;5.90;99.90;;;;;;5069138;28;19924;-69
2023/04/30 00:30:34;;;;;;;;;;;5.80;99.90;;;;;;5072884;28;19932;-69
2023/04/30 00:33:00;;;;;;;;;;;6.60;99.90;;;;;;5072193;28;20400;-69
2023/04/30 00:35:25;;;;;;;;;;;5.90;99.90;;;;;;5061110;28;19932;-69
2023/04/30 00:37:51;;;;;;;;;;;5.80;99.90;;;;;;5072873;28;19935;-69
2023/04/30 00:40:16;;;;;;;;;;;5.80;99.90;;;;;;5072574;28;19931;-69
2023/04/30 00:42:42;;;;;;;;;;;5.90;99.90;;;;;;5070698;28;19960;-69
2023/04/30 00:45:07;;;;;;;;;;;5.80;99.90;;;;;;5073537;28;20354;-69
2023/04/30 00:47:33;;;;;;;;;;;5.70;99.90;;;;;;5076075;28;19978;-69
2023/04/30 00:49:59;;;;;;;;;;;5.70;99.90;;;;;;5075164;28;19929;-69
2023/04/30 00:52:25;;;;;;;;;;;5.70;99.90;;;;;;5071868;28;19928;-69
2023/04/30 00:54:52;;;;;;;;;;;6.60;99.90;;;;;;5057603;28;19935;-69
2023/04/30 00:57:19;;;;;;;;;;;5.70;99.90;;;;;;5076155;28;20274;-69
2023/04/30 00:59:44;;;;;;;;;;;5.70;99.90;;;;;;5057426;28;19931;-69
2023/04/30 01:02:11;;;;;;;;;;;5.60;99.90;;;;;;5075054;28;19925;-69
2023/04/30 01:04:37;;;;;;;;;;;5.70;99.90;;;;;;5072948;28;19925;-69
2023/04/30 01:07:02;;;;;;;;;;;5.70;99.90;;;;;;5070877;28;19932;-69
2023/04/30 01:09:28;;;;;;;;;;;5.70;99.90;;;;;;5037603;28;20030;-69
2023/04/30 01:11:54;;;;;;;;;;;5.70;99.90;;;;;;5037757;28;19948;-69
2023/04/30 01:14:35;;;;;;;;;;;5.70;99.90;;;;;;5055577;28;19948;-69
2023/04/30 01:17:16;;;;;;;;;;;5.60;99.90;;;;;;5070886;28;20386;-69
2023/04/30 01:19:43;;;;;;;;;;;5.60;99.90;;;;;;5073847;28;19925;-69
2023/04/30 01:22:10;;;;;;;;;;;5.60;99.90;;;;;;5060277;28;19991;-69
2023/04/30 01:24:36;;;;;;;;;;;5.50;99.90;;;;;;5058667;28;19935;-69
2023/04/30 01:27:02;;;;;;;;;;;5.50;99.90;;;;;;5073805;28;19924;-69
2023/04/30 01:29:29;;;;;;;;;;;5.50;99.90;;;;;;5072321;28;19970;-69
2023/04/30 01:31:54;;;;;;;;;;;5.50;99.90;;;;;;5060650;28;19924;-69
2023/04/30 01:34:20;;;;;;;;;;;5.40;99.90;;;;;;5058328;28;19924;-69
2023/04/30 01:36:57;;;;;;;;;;;5.40;99.90;;;;;;5074728;28;20019;-69
2023/04/30 01:39:31;;;;;;;;;;;5.40;99.90;;;;;;5057446;28;19925;-69
2023/04/30 01:42:09;;;;;;;;;;;5.40;99.90;;;;;;5055212;28;20294;-69
2023/04/30 01:44:38;;;;;;;;;;;5.50;99.90;;;;;;5055737;28;19924;-69
2023/04/30 01:47:05;;;;;;;;;;;5.50;99.90;;;;;;5032871;28;19931;-69
2023/04/30 01:49:49;;;;;;;;;;;5.50;99.90;;;;;;5074131;28;20015;-69
2023/04/30 01:52:21;;;;;;;;;;;5.50;99.90;;;;;;5073117;28;19932;-69
2023/04/30 01:54:46;;;;;;;;;;;5.50;99.90;;;;;;5071758;28;20375;-69
2023/04/30 01:57:16;;;;;;;;;;;5.50;99.90;;;;;;5073440;28;19924;-69
2023/04/30 01:59:42;;;;;;;;;;;5.60;99.90;;;;;;5074139;28;19931;-69
2023/04/30 02:02:08;;;;;;;;;;;5.60;99.90;;;;;;5056882;28;20015;-69
2023/04/30 02:04:33;;;;;;;;;;;5.60;99.90;;;;;;5071837;28;20378;-69
2023/04/30 02:06:59;;;;;;;;;;;5.60;99.90;;;;;;5056313;28;19928;-69
2023/04/30 02:09:25;;;;;;;;;;;5.70;99.90;;;;;;5074424;28;19925;-69
2023/04/30 02:11:50;;;;;;;;;;;5.70;99.90;;;;;;5073937;28;19990;-69
2023/04/30 02:14:16;;;;;;;;;;;5.70;99.90;;;;;;5073735;28;19924;-69
2023/04/30 02:16:41;;;;;;;;;;;6.60;99.90;;;;;;5074666;28;20015;-69
2023/04/30 02:19:07;;;;;;;;;;;5.80;99.90;;;;;;5073576;28;19980;-69
2023/04/30 02:21:33;;;;;;;;;;;5.80;99.90;;;;;;5071272;28;19960;-69
2023/04/30 02:23:58;;;;;;;;;;;5.80;99.90;;;;;;5074310;28;20414;-69
2023/04/30 02:26:25;;;;;;;;;;;5.80;99.90;;;;;;5057781;28;20476;-69
2023/04/30 02:28:51;;;;;;;;;;;5.90;99.90;;;;;;5067997;28;19928;-69
2023/04/30 02:31:16;;;;;;;;;;;5.80;99.90;;;;;;5073324;28;20301;-69
2023/04/30 02:33:42;;;;;;;;;;;5.90;99.90;;;;;;5067739;28;19924;-69
2023/04/30 02:36:07;;;;;;;;;;;5.90;99.90;;;;;;5073140;28;19931;-69
2023/04/30 02:38:33;;;;;;;;;;;5.90;99.90;;;;;;5074011;28;19931;-69
2023/04/30 02:41:02;;;;;;;;;;;5.90;99.90;;;;;;5074205;28;19925;-69
2023/04/30 02:43:27;;;;;;;;;;;5.80;99.90;;;;;;5064996;28;19932;-69
2023/04/30 02:45:53;;;;;;;;;;;5.80;99.90;;;;;;5054330;28;19925;-69
2023/04/30 02:48:18;;;;;;;;;;;5.90;99.90;;;;;;5061161;28;20258;-69
2023/04/30 02:50:44;;;;;;;;;;;5.90;99.90;;;;;;5072004;28;20378;-69
2023/04/30 02:53:10;;;;;;;;;;;5.90;99.90;;;;;;5055328;28;19924;-69
2023/04/30 02:55:35;;;;;;;;;;;5.90;99.90;;;;;;5053691;28;19931;-70
2023/04/30 02:58:01;;;;;;;;;;;5.90;99.90;;;;;;5054637;28;19993;-69
2023/04/30 03:00:26;;;;;;;;;;;5.90;99.90;;;;;;5052809;28;19925;-69
2023/04/30 03:02:52;;;;;;;;;;;5.90;99.90;;;;;;5067573;28;19924;-69
2023/04/30 03:05:17;;;;;;;;;;;5.90;99.90;;;;;;5072422;28;20293;-69
2023/04/30 03:07:43;;;;;;;;;;;6.00;99.90;;;;;;5073440;28;19975;-69
2023/04/30 03:10:09;;;;;;;;;;;6.00;99.90;;;;;;5072909;28;19925;-69
2023/04/30 03:12:35;;;;;;;;;;;6.00;99.90;;;;;;5073137;28;20014;-69
2023/04/30 03:15:01;;;;;;;;;;;6.00;99.90;;;;;;5056876;28;20470;-69
2023/04/30 03:17:26;;;;;;;;;;;6.00;99.90;;;;;;5073200;28;20019;-69
2023/04/30 03:19:52;;;;;;;;;;;6.00;99.90;;;;;;5070678;28;20421;-69
2023/04/30 03:22:22;;;;;;;;;;;6.00;99.90;;;;;;5065905;28;19925;-69
2023/04/30 03:24:48;;;;;;;;;;;6.00;99.90;;;;;;5053641;28;19924;-69
2023/04/30 03:27:15;;;;;;;;;;;6.10;99.90;;;;;;5053373;28;19925;-69
2023/04/30 03:29:41;;;;;;;;;;;6.00;99.90;;;;;;5054086;28;19972;-69
2023/04/30 03:32:06;;;;;;;;;;;6.00;99.90;;;;;;5053875;28;19948;-69
2023/04/30 03:34:32;;;;;;;;;;;6.10;99.90;;;;;;5063378;28;19967;-69
2023/04/30 03:36:57;;;;;;;;;;;6.10;99.90;;;;;;5062397;28;20340;-69
2023/04/30 03:39:23;;;;;;;;;;;6.00;99.90;;;;;;5063025;28;20020;-69
2023/04/30 03:41:48;;;;;;;;;;;6.00;99.90;;;;;;5053207;28;19925;-69
2023/04/30 03:44:14;;;;;;;;;;;6.00;99.90;;;;;;5053046;28;19932;-69
2023/04/30 03:46:43;;;;;;;;;;;6.00;99.90;;;;;;5052984;28;19947;-69
2023/04/30 03:49:08;;;;;;;;;;;5.90;99.90;;;;;;5055720;28;19925;-69
2023/04/30 03:51:38;;;;;;;;;;;5.90;99.90;;;;;;5072101;28;19932;-69
2023/04/30 03:54:07;;;;;;;;;;;5.90;99.90;;;;;;5052781;28;19948;-69
2023/04/30 03:56:33;;;;;;;;;;;5.90;99.90;;;;;;5061227;28;19932;-69
2023/04/30 03:58:59;;;;;;;;;;;5.80;99.90;;;;;;5050723;28;19925;-69
2023/04/30 04:01:24;;;;;;;;;;;5.80;99.90;;;;;;5061542;28;19925;-69
2023/04/30 04:03:50;;;;;;;;;;;5.80;99.90;;;;;;5071521;28;19925;-69
2023/04/30 04:06:15;;;;;;;;;;;5.80;99.90;;;;;;5072569;28;19924;-69
2023/04/30 04:08:42;;;;;;;;;;;5.70;99.90;;;;;;5072006;28;20354;-69
2023/04/30 04:11:08;;;;;;;;;;;5.60;99.90;;;;;;5072449;28;19924;-68
2023/04/30 04:13:34;;;;;;;;;;;5.60;99.90;;;;;;5072209;28;19931;-70
2023/04/30 04:15:59;;;;;;;;;;;5.60;99.90;;;;;;5062559;28;19933;-69
2023/04/30 04:18:25;;;;;;;;;;;5.60;99.90;;;;;;5056956;28;19967;-69
2023/04/30 04:20:50;;;;;;;;;;;5.50;99.90;;;;;;5054972;28;20342;-69
2023/04/30 04:23:16;;;;;;;;;;;5.50;99.90;;;;;;5056629;28;19925;-69
2023/04/30 04:25:43;;;;;;;;;;;5.50;99.90;;;;;;5056544;28;20366;-69
2023/04/30 04:28:08;;;;;;;;;;;5.50;99.90;;;;;;5063079;28;19993;-69
2023/04/30 04:30:35;;;;;;;;;;;5.50;99.90;;;;;;5076569;28;20374;-69
2023/04/30 04:33:01;;;;;;;;;;;5.50;99.90;;;;;;5071106;28;19932;-69
2023/04/30 04:35:26;;;;;;;;;;;5.40;99.90;;;;;;5076157;28;19925;-69
2023/04/30 04:37:52;;;;;;;;;;;5.40;99.90;;;;;;5075981;28;19924;-69
2023/04/30 04:40:17;;;;;;;;;;;5.60;99.90;;;;;;5076505;28;19925;-69
2023/04/30 04:42:43;;;;;;;;;;;5.50;99.90;;;;;;5072696;28;19932;-69
2023/04/30 04:45:08;;;;;;;;;;;5.50;99.90;;;;;;5076027;28;19924;-70
2023/04/30 04:47:35;;;;;;;;;;;5.50;99.90;;;;;;5075779;28;20011;-69
2023/04/30 04:50:01;;;;;;;;;;;5.50;99.90;;;;;;5070848;28;19925;-69
2023/04/30 04:52:26;;;;;;;;;;;5.60;99.90;;;;;;5055609;28;20286;-69
2023/04/30 04:54:52;;;;;;;;;;;5.60;99.90;;;;;;5056121;28;20436;-69
2023/04/30 04:57:17;;;;;;;;;;;5.60;99.90;;;;;;5071804;28;19925;-69
2023/04/30 04:59:43;;;;;;;;;;;5.70;99.90;;;;;;5073950;28;19975;-69
2023/04/30 05:02:08;;;;;;;;;;;5.70;99.90;;;;;;5065994;28;19930;-69
2023/04/30 05:04:34;;;;;;;;;;;5.90;99.90;;;;;;5074897;28;20386;-69
2023/04/30 05:06:59;;;;;;;;;;;6.00;99.90;;;;;;5057696;28;19924;-69
2023/04/30 05:09:25;;;;;;;;;;;6.00;99.90;;;;;;5056503;28;19925;-69
2023/04/30 05:11:50;;;;;;;;;;;6.10;99.90;;;;;;5061026;28;20015;-69
2023/04/30 05:14:16;;;;;;;;;;;6.20;99.90;;;;;;5075469;28;20015;-69
2023/04/30 05:16:42;;;;;;;;;;;6.30;99.90;;;;;;5057943;28;19928;-68
2023/04/30 05:19:08;;;;;;;;;;;6.50;99.90;;;;;;5067953;28;20650;-69
2023/04/30 05:21:34;;;;;;;;;;;6.40;99.90;;;;;;5050096;28;19971;-68
2023/04/30 05:24:02;;;;;;;;;;;6.50;99.90;;;;;;5062270;28;19925;-69
2023/04/30 05:26:28;;;;;;;;;;;6.60;99.90;;;;;;5069248;28;19932;-69
2023/04/30 05:28:53;;;;;;;;;;;6.60;99.90;;;;;;5075312;28;19924;-69
2023/04/30 05:31:19;;;;;;;;;;;6.70;99.90;;;;;;5074698;28;20014;-69
2023/04/30 05:33:45;;;;;;;;;;;6.70;99.90;;;;;;5057458;28;20379;-69
2023/04/30 05:36:10;;;;;;;;;;;6.80;99.90;;;;;;5072179;28;19924;-70
2023/04/30 05:38:35;;;;;;;;;;;6.80;99.90;;;;;;5031919;28;19947;-68
2023/04/30 05:41:01;;;;;;;;;;;7.00;99.90;;;;;;5063736;28;19947;-68
2023/04/30 05:43:26;;;;;;;;;;;7.20;99.90;;;;;;5056769;28;19924;-69
2023/04/30 05:45:52;;;;;;;;;;;8.40;99.90;;;;;;5074021;28;19925;-68
2023/04/30 05:48:18;;;;;;;;;;;7.80;99.90;;;;;;5072130;28;19924;-68
2023/04/30 05:50:43;;;;;;;;;;;7.80;99.90;;;;;;5044945;28;19947;-69
2023/04/30 05:53:09;;;;;;;;;;;7.90;99.90;;;;;;5020522;28;19960;-68
2023/04/30 05:55:36;;;;;;;;;;;7.80;99.90;;;;;;5054570;28;20367;-68
2023/04/30 05:58:01;;;;;;;;;;;7.80;99.90;;;;;;5036333;28;19932;-68
2023/04/30 06:00:27;;;;;;;;;;;7.90;99.90;;;;;;5062480;28;19925;-68
2023/04/30 06:02:52;;;;;;;;;;;8.00;99.90;;;;;;5046836;28;19924;-69
2023/04/30 06:05:18;;;;;;;;;;;8.00;99.90;;;;;;5054511;28;20316;-69
2023/04/30 06:07:43;;;;;;;;;;;8.10;99.90;;;;;;5055439;28;19979;-69
2023/04/30 06:10:09;;;;;;;;;;;8.20;99.90;;;;;;5040800;28;19929;-68
2023/04/30 06:12:35;;;;;;;;;;;8.20;99.90;;;;;;5074626;28;20309;-69
2023/04/30 06:15:00;;;;;;;;;;;8.30;99.90;;;;;;5074138;28;19933;-69
2023/04/30 06:17:26;;;;;;;;;;;8.50;99.90;;;;;;5045357;28;20275;-68
2023/04/30 06:19:51;;;;;;;;;;;8.60;99.90;;;;;;5059819;28;19924;-68
2023/04/30 06:22:17;;;;;;;;;;;8.70;99.90;;;;;;5074394;28;20030;-68
2023/04/30 06:24:42;;;;;;;;;;;8.80;99.90;;;;;;5057469;28;19978;-69
2023/04/30 06:27:08;;;;;;;;;;;8.80;99.90;;;;;;5071671;28;19947;-69
2023/04/30 06:29:33;;;;;;;;;;;8.80;99.90;;;;;;5065473;28;20340;-69
2023/04/30 06:31:59;;;;;;;;;;;8.80;99.90;;;;;;5073938;28;20340;-68
2023/04/30 06:34:24;;;;;;;;;;;8.90;99.90;;;;;;5057614;28;19925;-69
2023/04/30 06:36:50;;;;;;;;;;;8.80;99.90;;;;;;5059141;28;19935;-68
2023/04/30 06:39:15;;;;;;;;;;;8.90;99.90;;;;;;5074038;28;20437;-69
2023/04/30 06:41:41;;;;;;;;;;;8.90;99.90;;;;;;5053734;28;19930;-69
2023/04/30 06:44:07;;;;;;;;;;;9.00;99.90;;;;;;5072621;28;19990;-69
2023/04/30 06:46:33;;;;;;;;;;;8.90;99.90;;;;;;5055805;28;19925;-68
2023/04/30 06:48:59;;;;;;;;;;;9.00;99.90;;;;;;5060219;28;19932;-68
2023/04/30 06:51:25;;;;;;;;;;;9.00;99.90;;;;;;5071432;28;19924;-68
2023/04/30 06:53:51;;;;;;;;;;;9.00;99.90;;;;;;5051856;28;19929;-69
2023/04/30 06:56:16;;;;;;;;;;;9.10;99.90;;;;;;5064143;28;19931;-69
2023/04/30 06:58:42;;;;;;;;;;;9.10;99.90;;;;;;5073720;28;19936;-69
2023/04/30 07:01:08;;;;;;;;;;;9.20;99.90;;;;;;5073081;28;19925;-69
2023/04/30 07:03:34;;;;;;;;;;;9.20;99.90;;;;;;5060151;28;19924;-69
2023/04/30 07:05:59;;;;;;;;;;;9.20;99.90;;;;;;5053284;28;20021;-68
2023/04/30 07:08:25;;;;;;;;;;;9.30;99.90;;;;;;5070743;28;19972;-69
2023/04/30 07:10:50;;;;;;;;;;;9.30;99.90;;;;;;5072325;28;19970;-69
2023/04/30 07:13:16;;;;;;;;;;;9.40;99.90;;;;;;5073498;28;19998;-69
2023/04/30 07:15:42;;;;;;;;;;;9.50;99.90;;;;;;5053728;28;20004;-69
2023/04/30 07:18:08;;;;;;;;;;;9.60;99.90;;;;;;5073222;28;20011;-68
2023/04/30 07:20:34;;;;;;;;;;;9.70;99.90;;;;;;5069735;28;19928;-68
2023/04/30 07:23:00;;;;;;;;;;;9.80;99.90;;;;;;5054298;28;19932;-68
2023/04/30 07:25:25;;;;;;;;;;;9.80;99.90;;;;;;5072562;28;19964;-69
2023/04/30 07:27:54;;;;;;;;;;;9.80;99.90;;;;;;5048396;28;20000;-69
2023/04/30 07:30:21;;;;;;;;;;;9.90;99.90;;;;;;5057993;28;19928;-70
2023/04/30 07:32:46;;;;;;;;;;;9.90;99.90;;;;;;5072697;28;20332;-69
2023/04/30 07:35:13;;;;;;;;;;;9.90;99.90;;;;;;5072806;28;20027;-68
2023/04/30 07:37:39;;;;;;;;;;;10.00;99.90;;;;;;5071754;28;20385;-69
2023/04/30 07:40:06;;;;;;;;;;;10.10;99.90;;;;;;5073005;28;19924;-69
2023/04/30 07:42:32;;;;;;;;;;;10.20;99.90;;;;;;5053797;28;19936;-68
2023/04/30 07:44:58;;;;;;;;;;;10.30;99.90;;;;;;5064206;28;20293;-68
2023/04/30 07:47:24;;;;;;;;;;;10.30;99.90;;;;;;5072139;28;19924;-69
2023/04/30 07:49:50;;;;;;;;;;;10.30;99.90;;;;;;5057908;28;19932;-68
2023/04/30 07:52:16;;;;;;;;;;;10.40;99.90;;;;;;5072413;28;20294;-69
2023/04/30 07:54:41;;;;;;;;;;;10.50;99.90;;;;;;5072277;28;20278;-68
2023/04/30 07:57:07;;;;;;;;;;;10.60;99.90;;;;;;5071170;28;19931;-69
2023/04/30 07:59:32;;;;;;;;;;;10.70;99.90;;;;;;5072860;28;19931;-68
2023/04/30 08:01:58;;;;;;;;;;;10.70;99.90;;;;;;5053642;28;19925;-69
2023/04/30 08:04:23;;;;;;;;;;;10.80;99.90;;;;;;5058498;28;19924;-69
2023/04/30 08:06:49;;;;;;;;;;;10.80;99.90;;;;;;5052557;28;19925;-68
2023/04/30 08:09:15;;;;;;;;;;;11.00;99.90;;;;;;5052303;28;19932;-68
2023/04/30 08:11:40;;;;;;;;;;;11.10;99.90;;;;;;5064471;28;20326;-69
2023/04/30 08:14:06;;;;;;;;;;;11.10;99.90;;;;;;5072804;28;20035;-68
2023/04/30 08:16:32;;;;;;;;;;;11.20;99.90;;;;;;5071619;28;19924;-68
2023/04/30 08:18:58;;;;;;;;;;;11.30;99.90;;;;;;5072410;28;19924;-68
2023/04/30 08:21:23;;;;;;;;;;;11.40;99.90;;;;;;5067792;28;20367;-68
2023/04/30 08:23:49;;;;;;;;;;;11.40;99.90;;;;;;5071618;28;19924;-68
2023/04/30 08:26:14;;;;;;;;;;;11.50;99.90;;;;;;5072196;28;20011;-69
2023/04/30 08:28:40;;;;;;;;;;;11.50;99.90;;;;;;5071860;28;19928;-72
2023/04/30 08:31:05;;;;;;;;;;;11.50;99.90;;;;;;5059170;28;19932;-69
2023/04/30 08:33:31;;;;;;;;;;;11.50;99.90;;;;;;5072603;28;20031;-69
2023/04/30 08:35:58;;;;;;;;;;;11.60;99.90;;;;;;5072209;28;19932;-68
2023/04/30 08:38:24;;;;;;;;;;;11.70;99.90;;;;;;5067622;28;20011;-68
2023/04/30 08:41:01;;;;;;;;;;;11.60;99.90;;;;;;5051133;28;20018;-69
2023/04/30 08:43:27;;;;;;;;;;;11.80;99.90;;;;;;5052966;28;19978;-69
2023/04/30 08:45:53;;;;;;;;;;;11.90;99.90;;;;;;5052186;28;19932;-69
2023/04/30 08:48:20;;;;;;;;;;;11.90;99.90;;;;;;5053715;28;19924;-68
2023/04/30 08:50:45;;;;;;;;;;;11.90;99.90;;;;;;5070469;28;19924;-69
2023/04/30 08:53:12;;;;;;;;;;;12.00;99.90;;;;;;5054925;28;19924;-69
2023/04/30 08:55:38;;;;;;;;;;;11.90;99.90;;;;;;5064396;28;19938;-69
2023/04/30 08:58:04;;;;;;;;;;;11.90;99.90;;;;;;5072087;28;19928;-69
2023/04/30 09:00:31;;;;;;;;;;;11.90;99.90;;;;;;5072282;28;19924;-68
2023/04/30 09:02:56;;;;;;;;;;;11.90;99.90;;;;;;5071032;28;20290;-68
2023/04/30 09:05:22;;;;;;;;;;;12.00;99.90;;;;;;5071775;28;19932;-68
2023/04/30 09:07:48;;;;;;;;;;;12.10;99.90;;;;;;5073092;28;20002;-68
2023/04/30 09:10:18;;;;;;;;;;;12.20;99.90;;;;;;5075869;28;19977;-68
2023/04/30 09:12:44;;;;;;;;;;;12.20;99.90;;;;;;5072104;28;20011;-69
2023/04/30 09:15:11;;;;;;;;;;;12.20;99.90;;;;;;5055835;28;19947;-69
2023/04/30 09:17:36;;;;;;;;;;;12.20;99.90;;;;;;5047835;28;20259;-68
2023/04/30 09:20:12;;;;;;;;;;;12.30;99.90;;;;;;5073761;28;19977;-69
2023/04/30 09:22:39;;;;;;;;;;;12.30;99.90;;;;;;5058334;28;20287;-69
2023/04/30 09:25:05;;;;;;;;;;;12.30;99.90;;;;;;5061457;28;19925;-70
2023/04/30 09:27:30;;;;;;;;;;;12.50;99.90;;;;;;5056210;28;19977;-69
2023/04/30 09:29:56;;;;;;;;;;;12.60;99.90;;;;;;5070464;28;20194;-69
2023/04/30 09:32:21;;;;;;;;;;;12.70;99.90;;;;;;5072569;28;20003;-69
2023/04/30 09:34:47;;;;;;;;;;;12.80;99.90;;;;;;5061342;28;19929;-69
2023/04/30 09:37:13;;;;;;;;;;;12.90;99.90;;;;;;5063200;28;19970;-69
2023/04/30 09:39:49;;;;;;;;;;;13.10;99.90;;;;;;5056551;28;19924;-69
2023/04/30 09:42:15;;;;;;;;;;;13.20;99.90;;;;;;5066200;28;19952;-69
2023/04/30 09:44:42;;;;;;;;;;;13.30;99.90;;;;;;5075309;28;20282;-69
2023/04/30 09:47:15;;;;;;;;;;;13.30;99.90;;;;;;5055145;28;19931;-69
2023/04/30 09:49:42;;;;;;;;;;;13.30;99.90;;;;;;5074842;28;19924;-69
2023/04/30 09:52:07;;;;;;;;;;;13.10;99.90;;;;;;5074646;28;20018;-69
2023/04/30 09:54:34;;;;;;;;;;;13.40;99.90;;;;;;5064277;28;20445;-69
2023/04/30 09:57:01;;;;;;;;;;;13.40;99.90;;;;;;5074858;28;19924;-70
2023/04/30 09:59:30;;;;;;;;;;;13.60;99.90;;;;;;5039342;28;20026;-69
2023/04/30 10:02:00;;;;;;;;;;;13.50;99.90;;;;;;5067507;28;19928;-69
2023/04/30 10:04:35;;;;;;;;;;;13.50;99.90;;;;;;5074610;28;19925;-69
2023/04/30 10:07:03;;;;;;;;;;;13.70;99.90;;;;;;5074624;28;19963;-69
2023/04/30 10:09:35;;;;;;;;;;;13.80;99.90;;;;;;5074389;28;20432;-69
2023/04/30 10:12:02;;;;;;;;;;;14.00;99.90;;;;;;5074662;28;19970;-69
2023/04/30 10:14:29;;;;;;;;;;;14.00;99.90;;;;;;5056370;28;19932;-68
2023/04/30 10:17:02;;;;;;;;;;;14.30;99.90;;;;;;5075409;28;19925;-68
2023/04/30 10:19:33;;;;;;;;;;;14.60;99.90;;;;;;5073464;28;19925;-67
2023/04/30 10:21:59;;;;;;;;;;;14.70;99.90;;;;;;5074920;28;19921;-67
2023/04/30 10:24:25;;;;;;;;;;;14.70;99.90;;;;;;5058029;28;20366;-69
2023/04/30 10:26:51;;;;;;;;;;;14.70;99.90;;;;;;5058865;28;19975;-69
2023/04/30 10:29:17;;;;;;;;;;;14.70;99.90;;;;;;5064766;28;19928;-69
2023/04/30 10:31:47;;;;;;;;;;;14.70;99.90;;;;;;5073419;28;19931;-69
2023/04/30 10:34:12;;;;;;;;;;;15.10;99.90;;;;;;5054961;28;19948;-69
2023/04/30 10:36:49;;;;;;;;;;;15.20;99.60;;;;;;5073977;28;19924;-69
2023/04/30 10:39:26;;;;;;;;;;;15.30;99.90;;;;;;5073751;28;19931;-69
2023/04/30 10:42:00;;;;;;;;;;;15.40;98.80;;;;;;5058511;28;19925;-69
2023/04/30 10:44:26;;;;;;;;;;;15.50;99.10;;;;;;5073869;28;19924;-69
2023/04/30 10:47:01;;;;;;;;;;;16.00;99.80;;;;;;5073721;28;19978;-69
2023/04/30 10:49:27;;;;;;;;;;;16.30;98.80;;;;;;5063538;28;19925;-69
2023/04/30 10:51:57;;;;;;;;;;;16.70;98.00;;;;;;5059484;28;20019;-69
2023/04/30 10:54:27;;;;;;;;;;;16.90;98.80;;;;;;5055568;28;19929;-69
2023/04/30 10:56:55;;;;;;;;;;;16.90;97.30;;;;;;5061226;28;19996;-69
2023/04/30 10:59:21;;;;;;;;;;;16.90;97.70;;;;;;5054520;28;19929;-69
2023/04/30 11:02:00;;;;;;;;;;;17.00;97.40;;;;;;5073970;28;19925;-69
2023/04/30 11:04:26;;;;;;;;;;;17.10;97.40;;;;;;5071748;28;19978;-70
2023/04/30 11:06:51;;;;;;;;;;;17.10;97.90;;;;;;5053659;28;19931;-69
2023/04/30 11:09:17;;;;;;;;;;;17.00;97.60;;;;;;5037341;28;19928;-70
2023/04/30 11:11:46;;;;;;;;;;;17.30;97.00;;;;;;5055377;28;19974;-69
2023/04/30 11:14:12;;;;;;;;;;;17.30;97.00;;;;;;5055508;28;20001;-69
2023/04/30 11:16:37;;;;;;;;;;;17.40;96.70;;;;;;5073170;28;19925;-69
2023/04/30 11:19:08;;;;;;;;;;;17.60;97.70;;;;;;5071600;28;19929;-69
2023/04/30 11:21:33;;;;;;;;;;;17.60;96.30;;;;;;5070872;28;19932;-69
2023/04/30 11:24:06;;;;;;;;;;;18.00;96.20;;;;;;5069001;28;20602;-68
2023/04/30 11:26:51;;;;;;;;;;;18.10;96.20;;;;;;5073132;28;19970;-67
2023/04/30 11:29:16;;;;;;;;;;;18.30;94.90;;;;;;5071026;28;19975;-68
2023/04/30 11:31:43;;;;;;;;;;;18.50;94.80;;;;;;5072282;28;19968;-70
2023/04/30 11:34:09;;;;;;;;;;;18.60;94.80;;;;;;5072189;28;19929;-69
2023/04/30 11:36:34;;;;;;;;;;;18.40;94.30;;;;;;5073574;28;19924;-69
2023/04/30 11:39:00;;;;;;;;;;;18.70;94.60;;;;;;5073275;28;19931;-69
2023/04/30 11:41:26;;;;;;;;;;;19.00;93.90;;;;;;5072688;28;19924;-69
2023/04/30 11:43:52;;;;;;;;;;;18.90;91.80;;;;;;5071442;28;19931;-69
2023/04/30 11:46:17;;;;;;;;;;;19.00;93.50;;;;;;5073396;28;19936;-69
2023/04/30 11:48:43;;;;;;;;;;;19.10;92.50;;;;;;5070170;28;20366;-69
2023/04/30 11:51:16;;;;;;;;;;;19.10;92.20;;;;;;5073142;28;19928;-69
2023/04/30 11:53:42;;;;;;;;;;;19.40;93.00;;;;;;5073307;28;19970;-69
2023/04/30 11:56:07;;;;;;;;;;;19.70;93.00;;;;;;5069339;28;20038;-69
2023/04/30 11:58:39;;;;;;;;;;;19.70;91.10;;;;;;5052967;28;20375;-69
2023/04/30 12:01:10;;;;;;;;;;;19.80;91.40;;;;;;5064717;28;19968;-70
2023/04/30 12:03:40;;;;;;;;;;;19.40;89.70;;;;;;5047888;28;19924;-69
2023/04/30 12:06:05;;;;;;;;;;;19.50;91.70;;;;;;5046392;28;19924;-71
2023/04/30 12:08:31;;;;;;;;;;;19.40;90.40;;;;;;5052925;28;20298;-68
2023/04/30 12:10:56;;;;;;;;;;;19.30;89.50;;;;;;5059232;28;19932;-69
2023/04/30 12:13:22;;;;;;;;;;;19.20;90.90;;;;;;5073173;28;19924;-69
2023/04/30 12:15:58;;;;;;;;;;;19.40;91.20;;;;;;5054198;28;19924;-69
2023/04/30 12:18:25;;;;;;;;;;;19.90;91.50;;;;;;5072152;28;20348;-69
2023/04/30 12:20:50;;;;;;;;;;;20.30;88.80;;;;;;5054912;28;19929;-68
2023/04/30 12:23:16;;;;;;;;;;;20.50;90.70;;;;;;5055093;28;19924;-69
2023/04/30 12:25:42;;;;;;;;;;;20.40;88.20;;;;;;5072975;28;19931;-69
2023/04/30 12:28:08;;;;;;;;;;;20.50;89.50;;;;;;5071629;28;19925;-69
2023/04/30 12:30:34;;;;;;;;;;;20.30;88.80;;;;;;5073071;28;19934;-69
2023/04/30 12:33:02;;;;;;;;;;;20.30;89.60;;;;;;5072611;28;19928;-69
2023/04/30 12:35:28;;;;;;;;;;;20.50;88.90;;;;;;5069933;28;19925;-69
2023/04/30 12:38:01;;;;;;;;;;;20.70;88.10;;;;;;5071803;28;19924;-69
2023/04/30 12:40:26;;;;;;;;;;;20.50;85.20;;;;;;5066696;28;19925;-69
2023/04/30 12:43:07;;;;;;;;;;;20.60;87.10;;;;;;5056612;28;20007;-69
2023/04/30 12:45:53;;;;;;;;;;;20.70;84.80;;;;;;5057432;28;19924;-69
2023/04/30 12:48:19;;;;;;;;;;;20.70;86.40;;;;;;5058065;28;19932;-69
2023/04/30 12:50:57;;;;;;;;;;;20.80;82.40;;;;;;5071332;28;19928;-69
2023/04/30 12:53:23;;;;;;;;;;;20.70;84.60;;;;;;5077062;28;20209;-70
2023/04/30 12:56:08;;;;;;;;;;;20.90;84.00;;;;;;5073131;28;19994;-70
2023/04/30 12:58:34;;;;;;;;;;;21.30;83.00;;;;;;5057008;28;19928;-69
2023/04/30 13:00:59;;;;;;;;;;;21.00;83.30;;;;;;5070411;28;19932;-69
2023/04/30 13:03:25;;;;;;;;;;;21.00;82.20;;;;;;5073221;28;20058;-69
2023/04/30 13:05:51;;;;;;;;;;;21.30;84.80;;;;;;5073780;28;20282;-69
2023/04/30 13:08:17;;;;;;;;;;;20.90;81.80;;;;;;5062666;28;19925;-69
2023/04/30 13:10:44;;;;;;;;;;;20.90;82.30;;;;;;5057156;28;19925;-69
2023/04/30 13:13:10;;;;;;;;;;;21.10;83.80;;;;;;5061327;28;19932;-69
2023/04/30 13:15:35;;;;;;;;;;;21.70;82.90;;;;;;5077728;28;20305;-69
2023/04/30 13:18:02;;;;;;;;;;;21.50;79.80;;;;;;5077845;28;19932;-69
2023/04/30 13:20:28;;;;;;;;;;;21.70;81.30;;;;;;5077689;28;20432;-69
2023/04/30 13:22:54;;;;;;;;;;;21.50;81.80;;;;;;5078283;28;20400;-69
2023/04/30 13:25:19;;;;;;;;;;;21.90;82.00;;;;;;5061142;28;19925;-69
2023/04/30 13:27:45;;;;;;;;;;;21.90;79.10;;;;;;5058165;28;20279;-70
2023/04/30 13:30:10;;;;;;;;;;;22.10;79.40;;;;;;5058345;28;19925;-70
2023/04/30 13:32:36;;;;;;;;;;;22.40;79.50;;;;;;5047257;28;19932;-69
2023/04/30 13:35:02;;;;;;;;;;;22.80;78.50;;;;;;5060694;28;19929;-70
2023/04/30 13:37:30;;;;;;;;;;;22.90;77.90;;;;;;5058253;28;19924;-69
2023/04/30 13:39:56;;;;;;;;;;;23.10;77.30;;;;;;5076712;28;20033;-70
2023/04/30 13:42:22;;;;;;;;;;;23.20;76.30;;;;;;5075224;28;19924;-69
2023/04/30 13:44:48;;;;;;;;;;;23.30;77.10;;;;;;5056990;28;20267;-70
2023/04/30 13:47:14;;;;;;;;;;;23.90;75.40;;;;;;5075876;28;19932;-69
2023/04/30 13:49:40;;;;;;;;;;;23.90;75.10;;;;;;5061123;28;20041;-70
2023/04/30 13:52:06;;;;;;;;;;;23.50;73.30;;;;;;5077216;28;19971;-69
2023/04/30 13:54:31;;;;;;;;;;;23.70;73.40;;;;;;5060236;28;20007;-69
2023/04/30 13:56:58;;;;;;;;;;;23.40;72.80;;;;;;5076118;28;19979;-69
2023/04/30 13:59:24;;;;;;;;;;;23.70;73.70;;;;;;5075657;28;19928;-70
2023/04/30 14:01:49;;;;;;;;;;;23.60;73.00;;;;;;5076126;28;19969;-69
2023/04/30 14:04:15;;;;;;;;;;;23.80;72.60;;;;;;5075256;28;19925;-69
2023/04/30 14:06:41;;;;;;;;;;;23.40;72.70;;;;;;5073943;28;19924;-69
2023/04/30 14:09:06;;;;;;;;;;;23.10;72.40;;;;;;5074410;28;19925;-69
2023/04/30 14:11:32;;;;;;;;;;;22.50;73.90;;;;;;5074065;28;20015;-69
2023/04/30 14:13:57;;;;;;;;;;;22.40;75.00;;;;;;5051422;28;19925;-69
2023/04/30 14:16:24;;;;;;;;;;;22.20;74.40;;;;;;5054594;28;20063;-69
2023/04/30 14:18:49;;;;;;;;;;;22.70;74.90;;;;;;5054596;28;19999;-69
2023/04/30 14:21:15;;;;;;;;;;;22.90;74.60;;;;;;5062525;28;20467;-69